Time;durP1;ratioP1;P1;durP2;ratioP2;P2;SDS_P1;SDS_P2;PMS_P1;PMS_P2;Temp;Humidity;BMP_temperature;BMP_pressure;BME280_temperature;BME280_humidity;BME280_pressure;Samples;Min_cycle;Max_cycle;Signal;HPM_P1;HPM_P2
2022/05/27 00:00:44;;;;;;;11.25;3.00;;;;;;;15.64;69.38;101936.47;5033769;28;20065;-61
2022/05/27 00:03:10;;;;;;;7.30;3.15;;;;;;;15.60;69.38;101937.31;5033754;28;20029;-61
2022/05/27 00:05:36;;;;;;;9.05;2.70;;;;;;;15.60;69.63;101928.44;5033725;28;20459;-61
2022/05/27 00:08:01;;;;;;;9.60;3.00;;;;;;;15.57;69.54;101925.72;5033670;28;20024;-61
2022/05/27 00:10:27;;;;;;;7.55;2.97;;;;;;;15.57;69.76;101931.94;5033501;28;20037;-61
2022/05/27 00:12:53;;;;;;;6.13;2.85;;;;;;;15.59;69.67;101924.88;5033658;28;20033;-60
2022/05/27 00:15:27;;;;;;;7.70;3.03;;;;;;;15.59;69.39;101930.19;5032857;28;20088;-60
2022/05/27 00:17:56;;;;;;;8.13;3.03;;;;;;;15.58;69.70;101924.84;5032621;28;20471;-60
2022/05/27 00:20:25;;;;;;;6.80;3.13;;;;;;;15.55;70.16;101920.41;5032488;28;20129;-60
2022/05/27 00:22:50;;;;;;;8.05;3.13;;;;;;;15.55;70.09;101912.41;5032788;28;20123;-61
2022/05/27 00:25:16;;;;;;;5.80;2.85;;;;;;;15.52;70.06;101913.25;5034053;28;20116;-60
2022/05/27 00:27:41;;;;;;;7.55;2.95;;;;;;;15.53;70.15;101916.81;5034022;28;20356;-60
2022/05/27 00:30:09;;;;;;;8.70;2.92;;;;;;;15.54;70.40;101913.25;5033356;28;20060;-61
2022/05/27 00:32:37;;;;;;;10.02;3.03;;;;;;;15.52;70.23;101918.59;5033193;28;20068;-61
2022/05/27 00:35:03;;;;;;;11.00;2.88;;;;;;;15.51;70.50;101914.16;5033255;28;20448;-61
2022/05/27 00:37:28;;;;;;;9.38;3.13;;;;;;;15.51;70.23;101911.50;5033177;28;20486;-60
2022/05/27 00:39:55;;;;;;;9.48;3.08;;;;;;;15.52;70.37;101915.03;5033149;28;20068;-61
2022/05/27 00:42:21;;;;;;;11.30;3.22;;;;;;;15.55;70.21;101914.19;5033169;28;20472;-60
2022/05/27 00:44:46;;;;;;;8.38;3.30;;;;;;;15.50;70.61;101914.13;5032996;28;20025;-61
2022/05/27 00:47:16;;;;;;;9.35;3.20;;;;;;;15.48;71.00;101907.91;5033120;28;20025;-60
2022/05/27 00:49:48;;;;;;;10.85;3.33;;;;;;;15.47;71.14;101906.13;5033087;28;20056;-61
2022/05/27 00:52:17;;;;;;;7.93;3.20;;;;;;;15.50;71.76;101914.13;5032951;28;20026;-61
2022/05/27 00:54:44;;;;;;;13.38;3.20;;;;;;;15.47;71.91;101907.03;5033018;28;20057;-61
2022/05/27 00:57:14;;;;;;;12.30;3.40;;;;;;;15.46;72.24;101910.56;5033065;28;20021;-61
2022/05/27 00:59:49;;;;;;;9.65;3.33;;;;;;;15.42;72.91;101905.22;5033042;28;20471;-61
2022/05/27 01:02:14;;;;;;;11.13;3.30;;;;;;;15.38;73.35;101909.63;5032941;28;20041;-61
2022/05/27 01:04:40;;;;;;;12.73;3.90;;;;;;;15.34;73.49;101901.59;5032869;28;20025;-61
2022/05/27 01:07:05;;;;;;;9.93;3.42;;;;;;;15.28;74.27;101897.97;5032806;28;20032;-61
2022/05/27 01:09:34;;;;;;;8.73;3.50;;;;;;;15.27;74.26;101904.19;5032970;28;20021;-61
2022/05/27 01:12:17;;;;;;;10.40;3.70;;;;;;;15.24;74.25;101897.94;5032846;28;20037;-61
2022/05/27 01:15:07;;;;;;;9.90;3.95;;;;;;;15.23;74.35;101890.84;5032919;28;20033;-61
2022/05/27 01:17:47;;;;;;;11.48;3.85;;;;;;;15.18;74.72;101898.78;5032955;28;20425;-61
2022/05/27 01:20:27;;;;;;;8.50;3.65;;;;;;;15.15;74.87;101900.53;5032748;28;20060;-61
2022/05/27 01:23:03;;;;;;;8.38;3.85;;;;;;;15.16;75.49;101894.31;5032714;28;20026;-61
2022/05/27 01:25:50;;;;;;;11.57;3.90;;;;;;;15.14;76.14;101894.31;5032854;28;20029;-61
2022/05/27 01:28:18;;;;;;;10.43;4.03;;;;;;;15.09;77.05;101898.72;5032919;28;20033;-61
2022/05/27 01:30:56;;;;;;;10.80;4.15;;;;;;;15.06;76.59;101897.78;5032745;28;20033;-61
2022/05/27 01:33:40;;;;;;;10.13;3.97;;;;;;;15.01;77.09;101903.94;5032694;28;20479;-61
2022/05/27 01:36:36;;;;;;;11.35;4.47;;;;;;;14.95;77.76;101895.94;5032795;28;20064;-61
2022/05/27 01:39:28;;;;;;;13.10;4.13;;;;;;;14.95;76.85;101898.59;5032836;28;20038;-61
2022/05/27 01:42:08;;;;;;;15.13;4.70;;;;;;;14.92;77.90;101893.22;5028839;28;20076;-62
2022/05/27 01:44:43;;;;;;;10.63;4.10;;;;;;;14.88;78.88;101896.72;5036234;28;20061;-62
2022/05/27 01:47:17;;;;;;;11.82;4.68;;;;;;;14.84;79.08;101889.59;5036335;28;20033;-62
2022/05/27 01:49:54;;;;;;;11.82;4.60;;;;;;;14.83;79.73;101893.13;5036344;28;20045;-62
2022/05/27 01:52:33;;;;;;;10.38;4.30;;;;;;;14.82;79.36;101899.34;5036186;28;20030;-63
2022/05/27 01:55:01;;;;;;;15.05;4.88;;;;;;;14.78;80.02;101903.75;5036419;28;20036;-63
2022/05/27 01:57:31;;;;;;;13.18;4.55;;;;;;;14.73;80.96;101899.22;5036269;28;20463;-63
2022/05/27 02:00:21;;;;;;;11.68;4.70;;;;;;;14.70;81.13;101894.78;5036322;28;20120;-63
2022/05/27 02:03:01;;;;;;;19.08;5.20;;;;;;;14.72;81.17;101897.44;5035886;28;20021;-62
2022/05/27 02:05:50;;;;;;;14.45;4.97;;;;;;;14.73;80.69;101899.22;5036140;28;20443;-64
2022/05/27 02:08:21;;;;;;;10.27;5.10;;;;;;;14.67;82.13;101893.84;5035897;28;20029;-63
2022/05/27 02:10:57;;;;;;;13.13;5.40;;;;;;;14.65;82.00;101891.19;5036176;28;20418;-63
2022/05/27 02:13:45;;;;;;;13.90;5.00;;;;;;;14.63;82.31;101897.34;5035961;28;20135;-62
2022/05/27 02:16:18;;;;;;;10.25;4.90;;;;;;;14.58;82.85;101894.66;5035435;28;20040;-63
2022/05/27 02:18:58;;;;;;;10.00;5.13;;;;;;;14.57;83.15;101900.84;5035874;28;20032;-62
2022/05/27 02:21:32;;;;;;;11.63;5.18;;;;;;;14.58;83.22;101901.75;5035338;28;20052;-63
2022/05/27 02:24:02;;;;;;;10.75;5.25;;;;;;;14.59;83.24;101895.53;5035434;28;20128;-63
2022/05/27 02:26:34;;;;;;;18.73;5.63;;;;;;;14.58;83.68;101899.06;5035662;28;20062;-63
2022/05/27 02:29:06;;;;;;;13.95;5.80;;;;;;;14.52;83.92;101899.91;5035455;28;20021;-63
2022/05/27 02:31:35;;;;;;;14.70;5.93;;;;;;;14.46;84.67;101891.81;5035551;28;20108;-63
2022/05/27 02:37:24;;;;;;;12.43;5.38;;;;;;;14.33;85.30;101892.53;4955413;29;20559;-63
2022/05/27 02:39:50;;;;;;;11.48;6.05;;;;;;;14.32;85.12;101898.75;4955180;29;20035;-63
2022/05/27 02:42:26;;;;;;;10.75;5.68;;;;;;;14.34;84.95;101889.88;4955060;29;20050;-63
2022/05/27 02:45:09;;;;;;;17.33;6.60;;;;;;;14.32;84.88;101880.13;4955091;29;20046;-63
2022/05/27 02:48:07;;;;;;;13.57;6.35;;;;;;;14.41;84.84;101891.75;4970033;28;20038;-64
2022/05/27 02:50:51;;;;;;;10.43;6.30;;;;;;;14.44;85.46;101885.59;4968999;28;20045;-64
2022/05/27 02:53:52;;;;;;;11.93;6.80;;;;;;;14.48;84.63;101896.31;4974070;28;20035;-63
2022/05/27 02:56:34;;;;;;;11.25;6.43;;;;;;;14.54;84.98;101898.16;4974037;28;20066;-63
2022/05/27 02:59:01;;;;;;;12.07;6.32;;;;;;;14.56;85.29;101896.41;4974193;28;20031;-63
2022/05/27 03:01:26;;;;;;;9.70;5.40;;;;;;;14.57;84.50;101898.19;4974043;28;20126;-63
2022/05/27 03:03:51;;;;;;;9.52;6.25;;;;;;;14.61;85.14;101893.81;4973970;28;20149;-64
2022/05/27 03:06:26;;;;;;;11.48;6.22;;;;;;;14.60;85.42;101892.88;4974009;28;20066;-62
2022/05/27 03:09:03;;;;;;;12.48;6.30;;;;;;;14.62;85.25;101887.59;4973827;28;20066;-63
2022/05/27 03:11:45;;;;;;;10.02;6.35;;;;;;;14.66;85.18;101887.66;4974059;28;20123;-63
2022/05/27 03:14:50;;;;;;;13.93;6.47;;;;;;;14.70;84.62;101888.56;5021115;28;20087;-63
2022/05/27 03:17:42;;;;;;;9.15;6.18;;;;;;;14.70;85.31;101892.13;4986096;28;20038;-63
2022/05/27 03:20:26;;;;;;;11.25;6.63;;;;;;;14.76;85.27;101886.84;4992912;28;20060;-62
2022/05/27 03:23:22;;;;;;;8.00;6.03;;;;;;;14.77;85.49;101903.69;4993174;28;20528;-62
2022/05/27 03:26:27;;;;;;;9.85;5.47;;;;;;;14.75;85.15;101903.69;4992983;28;20050;-64
2022/05/27 03:29:10;;;;;;;6.75;4.95;;;;;;;14.78;85.28;101910.84;4992981;28;20109;-64
2022/05/27 03:31:54;;;;;;;8.05;4.97;;;;;;;14.76;85.27;101907.25;4992996;28;20034;-63
2022/05/27 03:34:36;;;;;;;6.43;3.60;;;;;;;14.74;84.23;101893.94;4992819;28;20042;-63
2022/05/27 03:37:09;;;;;;;5.60;2.97;;;;;;;14.78;83.72;101903.75;4993022;28;20607;-63
2022/05/27 03:39:40;;;;;;;5.80;3.05;;;;;;;14.71;82.91;101895.66;4992761;28;20030;-63
2022/05/27 03:42:08;;;;;;;7.30;3.33;;;;;;;14.70;83.39;101899.22;4992764;28;20046;-63
2022/05/27 03:44:34;;;;;;;6.55;3.30;;;;;;;14.65;83.59;101893.84;4992795;28;20057;-63
2022/05/27 03:47:00;;;;;;;6.22;3.25;;;;;;;14.64;83.53;101897.34;4993390;28;20492;-63
2022/05/27 03:49:26;;;;;;;5.45;2.75;;;;;;;14.62;82.74;101892.91;4993696;28;20038;-61
2022/05/27 03:52:02;;;;;;;6.63;2.85;;;;;;;14.52;82.85;101884.84;4992899;28;20034;-64
2022/05/27 03:54:27;;;;;;;5.93;3.13;;;;;;;14.50;83.16;101883.91;5012707;28;20049;-62
2022/05/27 03:56:53;;;;;;;5.40;2.70;;;;;;;14.51;82.87;101885.69;5033631;28;20029;-63
2022/05/27 03:59:20;;;;;;;7.57;2.58;;;;;;;14.49;82.49;101890.13;5033198;28;20025;-64
2022/05/27 04:01:48;;;;;;;5.43;2.90;;;;;;;14.44;82.76;101886.47;5033376;28;20044;-62
2022/05/27 04:04:16;;;;;;;7.05;2.97;;;;;;;14.43;82.92;101875.81;5033154;28;20034;-63
2022/05/27 04:06:42;;;;;;;5.90;2.92;;;;;;;14.42;82.50;101877.59;5032670;28;20032;-62
2022/05/27 04:09:08;;;;;;;6.25;3.00;;;;;;;14.43;82.82;101887.38;5033125;28;20026;-62
2022/05/27 04:11:34;;;;;;;5.40;2.60;;;;;;;14.45;82.91;101885.59;5033090;28;20057;-63
2022/05/27 04:13:59;;;;;;;6.07;3.20;;;;;;;14.46;82.88;101883.81;5032959;28;20025;-63
2022/05/27 04:16:25;;;;;;;5.07;2.92;;;;;;;14.52;82.86;101887.50;5032879;28;20029;-63
2022/05/27 04:18:50;;;;;;;6.43;2.90;;;;;;;14.55;82.98;101891.06;5033007;28;20025;-63
2022/05/27 04:21:16;;;;;;;4.05;2.60;;;;;;;14.60;82.83;101889.34;5032687;28;20465;-63
2022/05/27 04:23:42;;;;;;;5.97;3.05;;;;;;;14.66;82.68;101897.41;5032676;28;20534;-63
2022/05/27 04:26:07;;;;;;;6.25;3.28;;;;;;;14.64;82.71;101899.13;5032859;28;20117;-62
2022/05/27 04:28:34;;;;;;;5.13;3.05;;;;;;;14.64;83.15;101894.69;5032571;28;20022;-63
2022/05/27 04:31:00;;;;;;;7.97;3.55;;;;;;;14.62;83.11;101898.25;5032871;28;20089;-62
2022/05/27 04:33:27;;;;;;;8.80;3.72;;;;;;;14.62;83.35;101903.56;5032569;28;20120;-63
2022/05/27 04:35:53;;;;;;;6.40;3.67;;;;;;;14.64;83.65;101897.34;5032715;28;20033;-62
2022/05/27 04:38:18;;;;;;;7.57;4.10;;;;;;;14.68;83.99;101899.19;5032486;28;20029;-63
2022/05/27 04:40:43;;;;;;;6.25;3.72;;;;;;;14.68;83.95;101899.19;5032732;28;20052;-63
2022/05/27 04:43:09;;;;;;;7.00;3.95;;;;;;;14.66;84.17;101906.25;5032366;28;20026;-63
2022/05/27 04:45:34;;;;;;;7.30;4.35;;;;;;;14.66;84.53;101900.94;5032695;28;20463;-62
2022/05/27 04:48:00;;;;;;;8.48;5.00;;;;;;;14.69;84.50;101898.31;5032344;28;20101;-63
2022/05/27 04:50:27;;;;;;;7.47;4.78;;;;;;;14.75;84.76;101901.03;5032298;28;20109;-63
2022/05/27 04:52:55;;;;;;;9.00;5.13;;;;;;;14.77;85.32;101906.38;5032463;28;20487;-63
2022/05/27 04:55:22;;;;;;;10.05;5.55;;;;;;;14.86;85.48;101905.56;5032316;28;20072;-63
2022/05/27 04:57:54;;;;;;;8.80;6.00;;;;;;;14.88;85.82;101910.03;5032526;28;20514;-62
2022/05/27 05:00:22;;;;;;;10.98;5.40;;;;;;;14.96;85.20;101902.13;5032231;28;20041;-63
2022/05/27 05:02:47;;;;;;;12.68;6.53;;;;;;;14.99;85.67;101902.19;5032341;28;20076;-63
2022/05/27 05:05:18;;;;;;;14.27;6.47;;;;;;;15.07;85.74;101899.56;5032352;28;20511;-62
2022/05/27 05:07:47;;;;;;;11.95;6.97;;;;;;;15.12;85.32;101908.50;5032348;28;20053;-63
2022/05/27 05:10:17;;;;;;;14.18;7.22;;;;;;;15.15;85.71;101909.41;5032277;28;20025;-65
2022/05/27 05:12:43;;;;;;;13.50;7.28;;;;;;;15.24;85.59;101908.59;5032201;28;20100;-63
2022/05/27 05:15:10;;;;;;;13.82;7.45;;;;;;;15.34;85.45;101914.91;5032122;28;20025;-63
2022/05/27 05:17:35;;;;;;;14.05;7.20;;;;;;;15.40;84.98;101915.84;5033660;28;20037;-63
2022/05/27 05:20:01;;;;;;;12.70;7.20;;;;;;;15.43;85.47;101921.19;5035992;28;20450;-63
2022/05/27 05:22:26;;;;;;;14.85;6.95;;;;;;;15.43;85.70;101923.84;5036070;28;20021;-63
2022/05/27 05:24:55;;;;;;;14.00;7.15;;;;;;;15.48;85.91;101921.22;5036249;28;20100;-64
2022/05/27 05:27:25;;;;;;;16.10;6.03;;;;;;;15.51;85.75;101923.91;5035720;28;20471;-64
2022/05/27 05:29:52;;;;;;;13.48;6.80;;;;;;;15.56;85.95;101924.84;5036099;28;20386;-64
2022/05/27 05:32:18;;;;;;;15.27;6.53;;;;;;;15.57;85.62;101931.94;5035873;28;20026;-63
2022/05/27 05:34:43;;;;;;;15.27;6.57;;;;;;;15.61;85.29;101940.84;5036066;28;20033;-63
2022/05/27 05:37:09;;;;;;;20.27;6.25;;;;;;;15.64;85.71;101939.16;5035930;28;20018;-64
2022/05/27 05:39:36;;;;;;;17.00;6.93;;;;;;;15.61;84.62;101924.88;5035966;28;20113;-63
2022/05/27 05:42:04;;;;;;;17.70;6.00;;;;;;;15.63;84.82;101939.09;5035787;28;20033;-63
2022/05/27 05:44:30;;;;;;;17.33;5.97;;;;;;;15.65;84.01;101945.38;5035482;28;20093;-64
2022/05/27 05:46:56;;;;;;;12.50;5.40;;;;;;;15.70;83.85;101951.63;5035324;28;20053;-63
2022/05/27 05:49:22;;;;;;;13.95;4.70;;;;;;;15.68;82.15;101948.94;5035306;28;20022;-64
2022/05/27 05:51:49;;;;;;;13.20;4.55;;;;;;;15.64;81.25;101951.56;5035080;28;20459;-62
2022/05/27 05:54:14;;;;;;;16.42;4.75;;;;;;;15.59;81.38;101954.19;5035427;28;20465;-64
2022/05/27 05:56:39;;;;;;;15.20;5.20;;;;;;;15.63;nan;101963.97;5035717;28;20043;-64
2022/05/27 05:59:05;;;;;;;15.07;4.32;;;;;;;15.68;82.07;101954.28;5035440;28;20029;-63
2022/05/27 06:01:30;;;;;;;11.05;4.47;;;;;;;15.80;81.44;101953.44;5035546;28;20112;-64
2022/05/27 06:03:56;;;;;;;14.55;4.80;;;;;;;15.99;81.36;101958.03;5035241;28;20087;-63
2022/05/27 06:06:22;;;;;;;15.48;5.07;;;;;;;16.16;82.07;101950.13;5035390;28;20100;-63
2022/05/27 06:08:47;;;;;;;14.20;4.72;;;;;;;16.33;80.22;101952.91;5035433;28;20049;-63
2022/05/27 06:11:13;;;;;;;14.15;4.78;;;;;;;16.34;79.50;101951.13;5035364;28;20076;-63
2022/05/27 06:13:40;;;;;;;13.20;4.50;;;;;;;16.38;79.75;101958.25;5035272;28;20557;-63
2022/05/27 06:16:06;;;;;;;14.27;4.80;;;;;;;16.46;78.65;101956.50;5035153;28;20032;-63
2022/05/27 06:18:32;;;;;;;19.58;4.32;;;;;;;16.53;77.49;101961.00;5035194;28;20029;-63
2022/05/27 06:20:58;;;;;;;12.02;3.58;;;;;;;16.69;76.70;101954.81;5034929;28;20505;-63
2022/05/27 06:23:27;;;;;;;12.60;3.70;;;;;;;16.70;74.63;101950.34;5035158;28;20053;-63
2022/05/27 06:25:57;;;;;;;11.57;3.75;;;;;;;16.76;74.83;101955.75;5035038;28;20083;-62
2022/05/27 06:36:35;;;;;;;13.30;3.17;;;;;;;17.11;72.71;101966.53;5034726;28;20041;-64
2022/05/27 06:39:01;;;;;;;9.57;3.22;;;;;;;17.27;69.32;101970.13;5034662;28;20061;-63
2022/05/27 06:41:26;;;;;;;11.93;3.13;;;;;;;17.41;67.26;101971.00;5034470;28;20475;-63
2022/05/27 06:43:54;;;;;;;12.20;3.08;;;;;;;17.48;67.71;101964.78;5034543;28;20036;-63
2022/05/27 06:46:21;;;;;;;8.10;2.55;;;;;;;17.64;65.33;101962.97;5034719;28;20068;-63
2022/05/27 06:48:51;;;;;;;8.88;2.53;;;;;;;17.74;64.64;101963.91;5034591;28;20026;-63
2022/05/27 06:51:20;;;;;;;10.65;2.83;;;;;;;17.85;64.90;101971.91;5034536;28;20475;-63
2022/05/27 06:53:46;;;;;;;8.80;2.50;;;;;;;17.97;64.54;101971.91;5034494;28;20029;-63
2022/05/27 06:56:12;;;;;;;10.38;2.97;;;;;;;18.08;63.06;101964.75;5034668;28;20125;-63
2022/05/27 06:58:38;;;;;;;8.93;2.63;;;;;;;18.29;61.89;101971.84;5034401;28;20026;-63
2022/05/27 07:01:04;;;;;;;10.02;2.83;;;;;;;18.44;63.16;101985.16;5034149;28;20139;-63
2022/05/27 07:03:30;;;;;;;9.88;2.67;;;;;;;18.53;61.48;101974.41;5034171;28;20025;-63
2022/05/27 07:05:55;;;;;;;7.90;2.80;;;;;;;18.67;63.47;101974.38;5034333;28;20030;-62
2022/05/27 07:08:21;;;;;;;8.73;2.78;;;;;;;18.88;62.06;101981.41;5035002;28;20443;-63
2022/05/27 07:10:46;;;;;;;9.38;2.83;;;;;;;19.00;63.61;101992.06;5036379;28;20048;-62
2022/05/27 07:13:13;;;;;;;9.57;2.80;;;;;;;19.07;60.01;101981.31;5034923;28;20510;-62
2022/05/27 07:15:39;;;;;;;9.07;2.78;;;;;;;19.10;60.11;101978.59;5034499;28;20029;-63
2022/05/27 07:18:08;;;;;;;10.90;2.95;;;;;;;19.20;59.67;101975.88;5034334;28;20084;-63
2022/05/27 07:20:36;;;;;;;12.77;3.05;;;;;;;19.22;60.19;101986.56;5034006;28;20050;-62
2022/05/27 07:23:02;;;;;;;7.45;2.60;;;;;;;19.13;59.64;101981.25;5033775;28;20033;-62
2022/05/27 07:25:27;;;;;;;7.97;2.67;;;;;;;18.97;59.88;101969.75;5033942;28;20038;-62
2022/05/27 07:27:52;;;;;;;11.00;2.78;;;;;;;18.81;61.15;101976.13;5034217;28;20022;-63
2022/05/27 07:30:18;;;;;;;11.57;2.90;;;;;;;18.67;60.28;101977.03;5033914;28;20025;-62
2022/05/27 07:32:44;;;;;;;9.38;2.55;;;;;;;18.47;61.94;101979.78;5034132;28;20072;-62
2022/05/27 07:35:09;;;;;;;7.60;2.90;;;;;;;18.44;61.82;101987.81;5033972;28;20073;-62
2022/05/27 07:37:35;;;;;;;9.98;2.60;;;;;;;18.49;63.05;101980.66;5033685;28;20030;-63
2022/05/27 07:40:01;;;;;;;12.88;2.83;;;;;;;18.55;63.20;101981.56;5033005;28;20441;-62
2022/05/27 07:42:26;;;;;;;7.95;2.60;;;;;;;18.61;62.55;101978.84;5033707;28;20029;-63
2022/05/27 07:44:52;;;;;;;10.05;2.80;;;;;;;18.71;61.78;101985.97;5033657;28;20040;-63
2022/05/27 07:47:17;;;;;;;8.48;3.13;;;;;;;18.72;61.40;101985.09;5016128;28;20030;-63
2022/05/27 07:49:43;;;;;;;9.80;3.20;;;;;;;18.55;61.41;101979.75;5033725;28;20358;-63
2022/05/27 07:52:09;;;;;;;9.38;3.20;;;;;;;18.52;61.54;101980.66;5033886;28;20100;-63
2022/05/27 07:54:34;;;;;;;8.80;2.80;;;;;;;18.45;62.05;101992.28;5033880;28;20404;-63
2022/05/27 07:57:01;;;;;;;7.35;2.88;;;;;;;18.31;62.85;101990.53;5033701;28;20028;-63
2022/05/27 07:59:27;;;;;;;10.52;2.78;;;;;;;18.15;61.77;101998.59;5033475;28;20036;-63
2022/05/27 08:01:52;;;;;;;9.65;2.88;;;;;;;17.98;61.92;102005.75;5033528;28;20021;-63
2022/05/27 08:04:18;;;;;;;9.30;2.80;;;;;;;17.91;62.71;101999.56;5033142;28;20051;-63
2022/05/27 08:06:43;;;;;;;12.13;2.80;;;;;;;18.08;61.99;102004.00;5033376;28;20489;-63
2022/05/27 08:09:09;;;;;;;7.03;2.80;;;;;;;18.29;61.15;102000.38;5033121;28;20390;-63
2022/05/27 08:11:34;;;;;;;8.88;2.70;;;;;;;18.42;60.72;102004.78;5033185;28;20099;-63
2022/05/27 08:14:01;;;;;;;11.82;2.70;;;;;;;18.50;59.98;101993.16;5033125;28;20032;-63
2022/05/27 08:16:27;;;;;;;9.85;2.67;;;;;;;18.59;58.29;102005.63;5033180;28;20028;-64
2022/05/27 08:18:53;;;;;;;13.15;3.15;;;;;;;18.61;58.00;102005.63;5033052;28;20029;-62
2022/05/27 08:21:18;;;;;;;11.27;3.17;;;;;;;18.95;58.82;102009.94;5032915;28;20409;-63
2022/05/27 08:23:44;;;;;;;11.43;3.00;;;;;;;19.34;58.38;102013.28;5032859;28;20439;-63
2022/05/27 08:26:10;;;;;;;11.00;2.97;;;;;;;19.56;56.52;102023.84;5032971;28;20025;-62
2022/05/27 08:28:35;;;;;;;11.75;2.80;;;;;;;19.46;57.29;102010.50;5033210;28;20363;-62
2022/05/27 08:31:00;;;;;;;11.00;3.00;;;;;;;19.47;57.09;102022.13;5032841;28;20467;-63
2022/05/27 08:38:00;;;;;;;8.50;3.08;;;;;;;19.72;58.09;102010.34;5032882;28;20402;-62
2022/05/27 08:39:03;;;;;;;7.63;2.97;;;;;;;20.37;55.54;101998.97;5033078;28;20060;-63
2022/05/27 08:41:37;;;;;;;11.25;3.40;;;;;;;20.78;54.65;102001.19;5032781;28;20036;-63
2022/05/27 08:44:06;;;;;;;17.25;3.10;;;;;;;20.80;52.98;102001.16;5032719;28;20398;-62
2022/05/27 08:46:59;;;;;;;9.55;3.30;;;;;;;20.76;52.81;102001.19;5015059;28;20033;-62
2022/05/27 08:49:36;;;;;;;9.57;3.10;;;;;;;20.39;52.97;102015.97;4991228;28;20400;-62
2022/05/27 08:52:19;;;;;;;9.73;2.90;;;;;;;19.97;53.11;102020.84;4991158;28;20038;-64
2022/05/27 08:54:52;;;;;;;12.52;3.13;;;;;;;19.59;52.80;102027.41;4991402;28;20164;-63
2022/05/27 09:00:14;;;;;;;10.02;3.20;;;;;;;20.16;53.19;102025.13;4991563;28;20084;-62
2022/05/27 09:02:45;;;;;;;10.20;3.30;;;;;;;20.46;53.43;102015.84;4991243;28;20460;-62
2022/05/27 09:05:40;;;;;;;10.00;3.03;;;;;;;20.73;51.53;102027.22;4991219;28;20041;-62
2022/05/27 09:08:09;;;;;;;8.68;2.92;;;;;;;21.14;51.17;102023.97;4991174;28;20042;-62
2022/05/27 09:10:40;;;;;;;12.80;3.40;;;;;;;21.25;48.59;102019.34;4991198;28;20034;-63
2022/05/27 09:13:24;;;;;;;9.95;3.30;;;;;;;21.39;49.05;102023.66;4991227;28;20070;-62
2022/05/27 09:16:01;;;;;;;11.68;3.47;;;;;;;21.66;48.03;102017.81;4991233;28;20081;-63
2022/05/27 09:18:46;;;;;;;8.27;2.90;;;;;;;21.95;46.03;102024.50;4990966;28;20030;-63
2022/05/27 09:21:50;;;;;;;7.13;2.83;;;;;;;21.93;46.71;102029.03;4990877;28;20058;-62
2022/05/27 09:24:33;;;;;;;11.02;3.25;;;;;;;21.24;46.55;102032.78;4933198;29;20040;-62
2022/05/27 09:27:10;;;;;;;9.20;3.25;;;;;;;21.42;49.02;102032.56;4947386;29;20603;-62
2022/05/27 09:30:13;;;;;;;9.88;2.90;;;;;;;21.49;48.50;102025.25;4952341;29;20039;-62
2022/05/27 09:32:38;;;;;;;9.70;3.25;;;;;;;21.23;47.13;102045.34;4895380;29;20546;-62
2022/05/27 09:35:13;;;;;;;12.07;3.10;;;;;;;20.94;47.34;102044.84;4895265;29;20052;-64
2022/05/27 09:37:44;;;;;;;10.65;3.38;;;;;;;20.81;47.14;102049.47;4895271;29;20771;-62
2022/05/27 09:40:18;;;;;;;11.93;3.35;;;;;;;20.81;45.61;102048.59;4895302;29;20045;-63
2022/05/27 09:42:54;;;;;;;8.65;3.00;;;;;;;20.50;47.12;102055.22;4895336;29;20048;-62
2022/05/27 09:45:20;;;;;;;11.30;3.00;;;;;;;20.58;45.36;102060.50;4895286;29;20045;-62
2022/05/27 09:47:45;;;;;;;11.50;3.20;;;;;;;20.95;45.60;102054.72;4894905;29;20044;-63
2022/05/27 09:50:28;;;;;;;12.95;3.45;;;;;;;20.91;45.80;102071.78;4896419;29;20041;-62
2022/05/27 09:52:57;;;;;;;7.85;3.10;;;;;;;20.96;45.00;102061.84;4898406;29;20112;-62
2022/05/27 09:55:37;;;;;;;10.32;3.20;;;;;;;21.28;44.98;102072.16;4926601;29;20044;-62
2022/05/27 09:58:05;;;;;;;11.73;3.17;;;;;;;21.54;42.23;102063.75;4934943;29;20525;-62
2022/05/27 10:00:39;;;;;;;10.00;3.08;;;;;;;21.86;43.04;102060.53;4933072;29;20482;-62
2022/05/27 10:03:28;;;;;;;8.60;3.10;;;;;;;22.02;44.58;102061.19;4933524;29;20709;-62
2022/05/27 10:06:01;;;;;;;9.05;3.20;;;;;;;21.53;43.32;102066.47;4958530;28;20040;-62
2022/05/27 10:08:34;;;;;;;10.65;3.10;;;;;;;21.86;42.76;102063.22;5035518;28;20478;-63
2022/05/27 10:11:20;;;;;;;11.10;3.13;;;;;;;22.26;43.68;102062.56;5035305;28;20029;-62
2022/05/27 10:13:48;;;;;;;13.27;3.13;;;;;;;22.47;41.98;102066.66;5035496;28;20160;-63
2022/05/27 10:16:25;;;;;;;10.82;2.80;;;;;;;22.67;40.43;102064.47;5035594;28;20400;-63
2022/05/27 10:19:13;;;;;;;11.90;2.97;;;;;;;22.85;40.58;102067.69;5035598;28;20021;-62
2022/05/27 10:21:53;;;;;;;12.13;3.38;;;;;;;22.83;38.67;102058.78;5035079;28;20199;-63
2022/05/27 10:24:29;;;;;;;10.00;3.10;;;;;;;22.50;37.52;102061.22;5036218;28;20025;-63
2022/05/27 10:27:15;;;;;;;11.00;3.50;;;;;;;22.41;39.03;102066.78;5035954;28;20025;-62
2022/05/27 10:30:06;;;;;;;11.77;3.42;;;;;;;22.72;38.75;102070.66;5036558;28;20057;-63
2022/05/27 10:32:41;;;;;;;11.95;3.38;;;;;;;22.54;37.75;102062.06;5033224;28;20100;-62
2022/05/27 10:35:32;;;;;;;9.38;3.10;;;;;;;22.56;36.55;102060.19;5035230;28;20032;-62
2022/05/27 10:38:19;;;;;;;11.85;3.30;;;;;;;22.96;38.54;102055.81;5035170;28;20109;-62
2022/05/27 10:41:03;;;;;;;10.38;3.33;;;;;;;23.20;37.55;102064.28;5034870;28;20025;-62
2022/05/27 10:43:44;;;;;;;9.50;3.40;;;;;;;23.57;38.04;102077.81;5034795;28;20021;-63
2022/05/27 10:46:15;;;;;;;7.25;2.90;;;;;;;23.47;34.65;102078.97;5034895;28;20368;-63
2022/05/27 10:49:03;;;;;;;8.68;2.90;;;;;;;23.41;35.44;102069.19;5034514;28;20037;-63
2022/05/27 10:51:54;;;;;;;11.77;3.17;;;;;;;23.42;35.76;102070.06;4973854;28;20146;-63
2022/05/27 10:54:50;;;;;;;10.20;2.97;;;;;;;23.43;35.41;102070.03;4993276;28;20034;-63
2022/05/27 11:03:37;;;;;;;12.63;3.25;;;;;;;23.24;36.75;102079.47;4992972;28;20539;-62
2022/05/27 11:06:24;;;;;;;11.02;3.00;;;;;;;23.56;36.84;102073.34;4992999;28;20469;-63
2022/05/27 11:09:08;;;;;;;9.80;3.10;;;;;;;23.62;32.10;102075.88;4993015;28;20462;-62
2022/05/27 11:11:49;;;;;;;9.93;3.38;;;;;;;23.64;33.73;102079.44;4993095;28;20539;-62
2022/05/27 11:17:28;;;;;;;9.45;2.92;;;;;;;23.82;33.83;102067.34;4993199;28;20137;-62
2022/05/27 11:20:10;;;;;;;12.23;3.00;;;;;;;23.80;33.79;102058.38;4992926;28;20062;-62
2022/05/27 11:23:10;;;;;;;;;;;;;;;24.13;33.23;102069.25;4993196;28;20077;-62
2022/05/27 11:25:53;;;;;;;8.30;2.78;;;;;;;24.25;33.26;102074.34;4934860;29;20347;-63
2022/05/27 11:28:38;;;;;;;7.97;2.80;;;;;;;23.94;31.89;102079.66;4946882;28;20043;-62
2022/05/27 11:31:25;;;;;;;10.73;2.97;;;;;;;23.47;32.33;102069.06;4972093;28;20479;-62
2022/05/27 11:34:26;;;;;;;10.90;3.13;;;;;;;23.09;35.65;102077.13;4972274;28;20399;-62
2022/05/27 11:36:54;;;;;;;14.23;3.45;;;;;;;22.69;35.72;102075.19;4972632;28;20141;-62
2022/05/27 11:39:31;;;;;;;11.82;3.30;;;;;;;22.55;36.45;102075.47;4972908;28;20075;-62
2022/05/27 11:42:02;;;;;;;9.07;3.10;;;;;;;22.90;37.14;102084.69;4973040;28;20030;-62
2022/05/27 11:44:40;;;;;;;10.37;3.30;;;;;;;23.34;36.58;102077.44;4972939;28;20045;-62
2022/05/27 11:47:12;;;;;;;9.55;3.47;;;;;;;23.64;35.70;102078.53;4972957;28;20046;-62
2022/05/27 11:49:52;;;;;;;10.77;3.27;;;;;;;23.78;34.01;102079.16;4972790;28;20159;-63
2022/05/27 11:52:23;;;;;;;8.93;3.00;;;;;;;23.86;33.94;102087.06;4972515;28;20041;-62
2022/05/27 11:54:57;;;;;;;12.90;3.10;;;;;;;23.87;32.36;102089.72;4972757;28;20078;-62
2022/05/27 11:57:30;;;;;;;11.75;2.70;;;;;;;23.86;32.29;102078.97;4972715;28;20121;-62
2022/05/27 12:00:11;;;;;;;10.38;2.67;;;;;;;23.87;32.21;102083.44;5011940;28;20046;-62
2022/05/27 12:02:51;;;;;;;10.43;3.22;;;;;;;23.86;30.38;102089.75;5033207;28;20029;-62
2022/05/27 12:05:22;;;;;;;11.00;2.80;;;;;;;23.92;29.81;102089.59;5033370;28;20040;-62
2022/05/27 12:08:01;;;;;;;10.88;3.00;;;;;;;23.78;31.22;102092.63;5015580;28;20026;-62
2022/05/27 12:10:43;;;;;;;8.35;2.58;;;;;;;23.96;31.78;102097.56;5033397;28;20030;-62
2022/05/27 12:13:34;;;;;;;13.65;3.28;;;;;;;24.07;34.00;102082.91;5033207;28;20040;-62